Time;durP1;ratioP1;P1;durP2;ratioP2;P2;SDS_P1;SDS_P2;PMS_P1;PMS_P2;Temp;Humidity;BMP_temperature;BMP_pressure;BME280_temperature;BME280_humidity;BME280_pressure;Samples;Min_cycle;Max_cycle;Signal;HPM_P1;HPM_P2
2022/03/27 00:01:19;;;;;;;3.13;1.58;;;7.50;99.90;;;;;;5038669;28;20723;-74
2022/03/27 00:03:45;;;;;;;3.65;1.25;;;7.50;99.90;;;;;;5040914;28;20063;-74
2022/03/27 00:06:11;;;;;;;2.80;1.35;;;7.50;99.90;;;;;;5054716;28;20103;-74
2022/03/27 00:08:36;;;;;;;3.55;1.40;;;7.50;99.90;;;;;;5026185;28;20057;-74
2022/03/27 00:13:47;;;;;;;2.38;1.13;;;7.60;99.90;;;;;;5037962;28;20045;-74
2022/03/27 00:16:13;;;;;;;3.30;1.20;;;7.60;99.90;;;;;;5041357;28;20098;-74
2022/03/27 00:18:41;;;;;;;4.13;2.00;;;7.60;99.90;;;;;;5041109;28;20049;-74
2022/03/27 00:21:07;;;;;;;3.58;1.65;;;7.60;99.90;;;;;;5038018;28;20406;-74
2022/03/27 00:23:33;;;;;;;5.97;2.17;;;7.70;99.90;;;;;;5025671;28;20521;-74
2022/03/27 00:25:59;;;;;;;5.15;2.45;;;7.70;99.90;;;;;;5036829;28;20037;-74
2022/03/27 00:28:32;;;;;;;5.07;2.08;;;7.70;99.90;;;;;;5059156;28;20567;-74
2022/03/27 00:31:08;;;;;;;6.90;2.45;;;7.60;99.90;;;;;;5060718;28;20045;-74
2022/03/27 00:33:35;;;;;;;6.00;2.15;;;7.60;99.90;;;;;;5040366;28;20060;-74
2022/03/27 00:36:02;;;;;;;4.47;2.08;;;7.50;99.90;;;;;;5040995;28;20183;-73
2022/03/27 00:38:29;;;;;;;5.70;2.75;;;7.50;99.90;;;;;;5042318;28;20108;-74
2022/03/27 00:40:56;;;;;;;7.13;2.55;;;7.50;99.90;;;;;;5041499;28;20264;-74
2022/03/27 00:43:23;;;;;;;3.38;1.42;;;7.50;99.90;;;;;;5052825;28;20989;-74
2022/03/27 00:45:49;;;;;;;6.35;2.60;;;7.60;99.90;;;;;;5056733;28;20075;-74
2022/03/27 00:48:18;;;;;;;6.50;2.50;;;7.60;99.90;;;;;;5042037;28;20128;-74
2022/03/27 00:50:44;;;;;;;3.53;2.00;;;7.60;99.90;;;;;;5028222;28;20068;-74
2022/03/27 00:53:10;;;;;;;6.60;2.17;;;7.60;99.90;;;;;;5019696;28;20039;-73
2022/03/27 00:55:36;;;;;;;6.82;2.45;;;7.60;99.90;;;;;;5055898;28;20659;-74
2022/03/27 00:58:03;;;;;;;5.50;1.90;;;7.60;99.90;;;;;;5058256;28;20039;-74
2022/03/27 01:00:37;;;;;;;3.38;1.55;;;7.50;99.90;;;;;;5041772;28;20144;-74
2022/03/27 01:03:12;;;;;;;4.20;1.98;;;7.50;99.90;;;;;;5041426;28;20033;-74
2022/03/27 01:05:38;;;;;;;3.50;1.85;;;7.50;99.90;;;;;;5022310;28;20034;-74
2022/03/27 01:08:09;;;;;;;4.25;1.65;;;7.50;99.90;;;;;;5041555;28;20040;-74
2022/03/27 01:10:35;;;;;;;6.00;2.38;;;7.50;99.90;;;;;;5057574;28;20033;-73
2022/03/27 01:13:08;;;;;;;4.72;2.03;;;7.50;99.90;;;;;;5024243;28;20087;-74
2022/03/27 01:15:42;;;;;;;6.60;2.25;;;7.50;99.90;;;;;;5041386;28;20040;-74
2022/03/27 01:18:07;;;;;;;7.35;1.90;;;7.50;99.90;;;;;;5057790;28;20048;-74
2022/03/27 01:20:35;;;;;;;4.50;1.67;;;7.50;99.90;;;;;;5041159;28;20052;-74
2022/03/27 01:23:01;;;;;;;6.88;2.50;;;7.50;99.90;;;;;;5056396;28;20051;-74
2022/03/27 01:25:27;;;;;;;4.45;2.25;;;7.50;99.90;;;;;;5029926;28;20029;-73
2022/03/27 01:27:53;;;;;;;5.25;2.45;;;7.50;99.90;;;;;;5028084;28;20532;-74
2022/03/27 01:30:19;;;;;;;3.35;1.52;;;7.40;99.90;;;;;;5039506;28;20029;-74
2022/03/27 01:32:45;;;;;;;5.70;2.22;;;7.50;99.90;;;;;;5043231;28;20045;-74
2022/03/27 01:35:12;;;;;;;6.97;2.13;;;7.50;99.90;;;;;;5047717;28;20136;-74
2022/03/27 01:37:38;;;;;;;3.42;1.58;;;7.50;99.90;;;;;;5064116;28;20437;-74
2022/03/27 01:40:04;;;;;;;4.53;2.00;;;7.50;99.90;;;;;;5045961;28;20936;-74
2022/03/27 01:42:30;;;;;;;5.13;2.53;;;7.40;99.90;;;;;;5027351;28;20037;-74
2022/03/27 01:44:55;;;;;;;4.40;1.88;;;7.50;99.90;;;;;;5025921;28;20518;-74
2022/03/27 01:47:21;;;;;;;4.18;1.92;;;7.50;99.90;;;;;;5044702;28;20040;-74
2022/03/27 01:49:46;;;;;;;6.82;1.92;;;7.50;99.90;;;;;;5043122;28;20033;-74
2022/03/27 01:52:15;;;;;;;6.07;2.67;;;7.50;99.90;;;;;;5042614;28;20178;-74
2022/03/27 01:54:41;;;;;;;4.18;1.75;;;7.50;99.90;;;;;;5043495;28;20044;-74
2022/03/27 01:57:06;;;;;;;5.00;1.77;;;7.50;99.90;;;;;;5027892;28;20048;-74
2022/03/27 01:59:33;;;;;;;4.97;2.65;;;7.40;99.90;;;;;;5063049;28;20044;-74
2022/03/27 02:01:59;;;;;;;5.90;2.65;;;7.40;99.90;;;;;;5022089;28;20120;-74
2022/03/27 02:04:25;;;;;;;6.15;2.47;;;7.40;99.90;;;;;;5045643;28;20166;-74
2022/03/27 02:06:50;;;;;;;5.15;2.03;;;7.40;99.90;;;;;;5046428;28;20515;-74
2022/03/27 02:09:16;;;;;;;3.80;2.10;;;7.40;99.90;;;;;;5062218;28;20029;-74
2022/03/27 02:11:43;;;;;;;4.15;1.95;;;7.30;99.90;;;;;;5043399;28;20167;-74
2022/03/27 02:14:09;;;;;;;5.30;2.45;;;7.30;99.90;;;;;;5042159;28;20033;-74
2022/03/27 02:16:35;;;;;;;4.57;2.25;;;7.30;99.90;;;;;;5056448;28;20515;-74
2022/03/27 02:19:01;;;;;;;4.32;2.13;;;7.20;99.90;;;;;;5045381;28;20057;-73
2022/03/27 02:21:27;;;;;;;3.40;1.75;;;7.20;99.90;;;;;;5044156;28;20647;-74
2022/03/27 02:23:53;;;;;;;3.63;1.88;;;7.20;99.90;;;;;;5059125;28;20041;-74
2022/03/27 02:26:19;;;;;;;3.95;2.20;;;7.20;99.90;;;;;;5046597;28;20336;-73
2022/03/27 02:28:44;;;;;;;8.95;1.88;;;7.10;99.90;;;;;;5039825;28;20599;-74
2022/03/27 02:31:10;;;;;;;3.88;1.92;;;7.10;99.90;;;;;;5038157;28;20115;-74
2022/03/27 02:33:37;;;;;;;4.85;2.05;;;7.00;99.90;;;;;;5043202;28;20051;-74
2022/03/27 02:36:06;;;;;;;4.13;1.65;;;7.00;99.90;;;;;;5043572;28;20036;-74
2022/03/27 02:38:31;;;;;;;4.50;2.10;;;7.00;99.90;;;;;;5048209;28;20041;-74
2022/03/27 02:40:57;;;;;;;4.80;1.95;;;6.90;99.90;;;;;;5048137;28;20045;-74
2022/03/27 02:43:22;;;;;;;4.43;2.03;;;6.90;99.90;;;;;;5027341;28;20469;-74
2022/03/27 02:45:50;;;;;;;5.18;1.92;;;6.90;99.90;;;;;;5040221;28;20581;-74
2022/03/27 02:48:15;;;;;;;3.13;1.70;;;6.80;99.90;;;;;;5043548;28;20406;-74
2022/03/27 02:50:43;;;;;;;4.43;2.13;;;6.70;99.90;;;;;;5046522;28;20065;-74
2022/03/27 02:53:09;;;;;;;3.75;1.83;;;6.70;99.90;;;;;;5044721;28;20062;-74
2022/03/27 02:55:35;;;;;;;3.30;1.50;;;6.60;99.90;;;;;;5040595;28;20524;-74
2022/03/27 02:58:01;;;;;;;5.80;1.77;;;6.60;99.90;;;;;;5039111;28;20052;-74
2022/03/27 03:00:27;;;;;;;5.82;1.77;;;6.60;99.90;;;;;;5057158;28;20390;-74
2022/03/27 03:02:54;;;;;;;7.00;2.13;;;6.50;99.90;;;;;;5058786;28;20052;-74
2022/03/27 03:05:20;;;;;;;3.03;1.48;;;6.50;99.90;;;;;;5045116;28;20102;-74
2022/03/27 03:07:46;;;;;;;10.85;1.83;;;6.50;99.90;;;;;;5058133;28;20075;-74
2022/03/27 03:10:14;;;;;;;3.63;1.17;;;6.50;99.90;;;;;;5043831;28;20064;-74
2022/03/27 03:12:40;;;;;;;9.40;2.15;;;6.50;99.90;;;;;;5061145;28;20162;-74
2022/03/27 03:15:07;;;;;;;4.25;1.75;;;6.50;99.90;;;;;;5026627;28;20101;-74
2022/03/27 03:17:32;;;;;;;4.40;1.67;;;6.50;99.90;;;;;;5040983;28;20411;-74
2022/03/27 03:19:59;;;;;;;3.25;1.38;;;6.50;99.90;;;;;;5041938;28;20098;-74
2022/03/27 03:22:25;;;;;;;5.80;2.25;;;6.50;99.90;;;;;;5062227;28;20678;-74
2022/03/27 03:24:51;;;;;;;6.32;2.17;;;6.50;99.90;;;;;;5027050;28;20048;-74
2022/03/27 03:27:16;;;;;;;3.20;1.52;;;6.60;99.90;;;;;;5057039;28;20079;-74
2022/03/27 03:29:42;;;;;;;4.50;2.05;;;6.60;99.90;;;;;;5059929;28;20068;-74
2022/03/27 03:32:08;;;;;;;2.67;1.50;;;6.60;99.90;;;;;;5042430;28;20474;-74
2022/03/27 03:34:34;;;;;;;3.70;1.83;;;6.60;99.90;;;;;;5038811;28;20075;-74
2022/03/27 03:37:00;;;;;;;3.70;1.60;;;6.60;99.90;;;;;;5024711;28;20491;-74
2022/03/27 03:39:25;;;;;;;4.28;1.98;;;6.70;99.90;;;;;;5041930;28;20052;-74
2022/03/27 03:41:51;;;;;;;4.13;1.65;;;6.70;99.90;;;;;;5028678;28;20040;-74
2022/03/27 03:44:17;;;;;;;4.32;2.08;;;6.70;99.90;;;;;;5060326;28;20490;-74
2022/03/27 03:46:43;;;;;;;5.70;1.92;;;6.70;99.90;;;;;;5038683;28;20049;-74
2022/03/27 03:49:09;;;;;;;4.80;2.00;;;6.70;99.90;;;;;;5041330;28;20060;-74
2022/03/27 03:51:35;;;;;;;6.57;2.75;;;6.60;99.90;;;;;;5040936;28;20033;-74
2022/03/27 03:54:03;;;;;;;5.05;1.75;;;6.60;99.90;;;;;;5059247;28;20991;-74
2022/03/27 03:56:28;;;;;;;4.60;1.92;;;6.60;99.90;;;;;;5041515;28;20406;-74
2022/03/27 03:58:54;;;;;;;3.33;1.80;;;6.60;99.90;;;;;;5041331;28;20051;-74
2022/03/27 04:01:19;;;;;;;6.20;1.88;;;6.60;99.90;;;;;;5039716;28;20040;-74
2022/03/27 04:03:45;;;;;;;5.07;2.25;;;6.60;99.90;;;;;;5056289;28;20040;-74
2022/03/27 04:06:11;;;;;;;5.68;1.55;;;6.70;99.90;;;;;;5041804;28;20445;-74
2022/03/27 04:08:36;;;;;;;4.63;1.45;;;6.70;99.90;;;;;;5041734;28;20102;-74
2022/03/27 04:11:02;;;;;;;7.57;2.30;;;6.70;99.90;;;;;;5046276;28;20090;-74
2022/03/27 04:13:28;;;;;;;4.28;1.35;;;6.70;99.90;;;;;;5043194;28;20044;-74
2022/03/27 04:15:54;;;;;;;5.57;1.85;;;6.70;99.90;;;;;;5024262;28;20030;-74
2022/03/27 04:18:19;;;;;;;6.80;1.60;;;6.70;99.90;;;;;;5041488;28;20067;-74
2022/03/27 04:20:45;;;;;;;8.48;2.17;;;6.70;99.90;;;;;;5044776;28;20076;-74
2022/03/27 04:23:11;;;;;;;5.35;1.52;;;6.70;99.90;;;;;;5042381;28;20064;-74
2022/03/27 04:25:38;;;;;;;7.85;1.90;;;6.80;99.90;;;;;;5042174;28;20130;-74
2022/03/27 04:28:09;;;;;;;3.25;1.55;;;6.80;99.90;;;;;;5058605;28;20045;-74
2022/03/27 04:30:35;;;;;;;8.82;1.88;;;6.80;99.90;;;;;;5044563;28;20116;-74
2022/03/27 04:33:01;;;;;;;4.93;1.77;;;6.80;99.90;;;;;;5042965;28;20037;-74
2022/03/27 04:35:26;;;;;;;6.75;1.83;;;6.90;99.90;;;;;;5042243;28;20480;-74
2022/03/27 04:37:52;;;;;;;5.47;1.73;;;6.80;99.90;;;;;;5039184;28;20045;-74
2022/03/27 04:40:18;;;;;;;3.30;1.63;;;6.80;99.90;;;;;;5059049;28;20110;-74
2022/03/27 04:42:44;;;;;;;3.65;1.52;;;6.80;99.90;;;;;;5042833;28;20045;-74
2022/03/27 04:45:11;;;;;;;5.50;2.20;;;6.80;99.90;;;;;;5057399;28;20117;-74
2022/03/27 04:47:38;;;;;;;10.25;2.17;;;6.80;99.90;;;;;;5040705;28;20029;-74
2022/03/27 04:50:04;;;;;;;7.57;2.30;;;6.80;99.90;;;;;;5059042;28;20448;-74
2022/03/27 04:52:31;;;;;;;8.38;1.77;;;6.80;99.90;;;;;;5026677;28;20097;-74
2022/03/27 04:54:56;;;;;;;4.28;2.00;;;6.80;99.90;;;;;;5026036;28;20048;-74
2022/03/27 04:57:22;;;;;;;10.55;1.55;;;6.80;99.90;;;;;;5042835;28;20043;-74
2022/03/27 04:59:48;;;;;;;2.72;1.50;;;6.70;99.90;;;;;;5062840;28;20057;-74
2022/03/27 05:02:14;;;;;;;5.18;1.67;;;6.70;99.90;;;;;;5046738;28;20481;-74
2022/03/27 05:04:41;;;;;;;4.63;1.40;;;6.70;99.90;;;;;;5046843;28;20044;-74
2022/03/27 05:07:07;;;;;;;5.22;1.35;;;6.70;99.90;;;;;;5058428;28;20033;-74
2022/03/27 05:09:32;;;;;;;2.92;1.50;;;6.70;99.90;;;;;;5047898;28;20037;-74
2022/03/27 05:11:58;;;;;;;3.92;1.38;;;6.70;99.90;;;;;;5027680;28;20041;-74
2022/03/27 05:14:23;;;;;;;4.25;1.90;;;6.70;99.90;;;;;;5044028;28;20047;-74
2022/03/27 05:16:49;;;;;;;5.00;1.45;;;6.70;99.90;;;;;;5022602;28;20546;-74
2022/03/27 05:19:15;;;;;;;8.43;1.38;;;6.70;99.90;;;;;;5045009;28;20224;-74
2022/03/27 05:21:40;;;;;;;7.32;1.83;;;6.70;99.90;;;;;;5028820;28;20040;-74
2022/03/27 05:24:08;;;;;;;8.38;1.65;;;6.70;99.90;;;;;;5042659;28;20029;-74
2022/03/27 05:26:35;;;;;;;5.00;1.58;;;6.70;99.90;;;;;;5041923;28;20028;-74
2022/03/27 05:29:02;;;;;;;3.28;1.77;;;6.70;99.90;;;;;;5046687;28;20033;-74
2022/03/27 05:31:28;;;;;;;10.85;2.10;;;6.70;99.90;;;;;;5045088;28;20070;-75
2022/03/27 05:33:53;;;;;;;7.18;2.08;;;6.70;99.90;;;;;;5044945;28;20052;-74
2022/03/27 05:36:19;;;;;;;3.50;1.65;;;6.70;99.90;;;;;;5027667;28;20090;-74
2022/03/27 05:38:45;;;;;;;5.47;2.10;;;6.70;99.90;;;;;;5048505;28;20041;-74
2022/03/27 05:41:10;;;;;;;5.43;2.10;;;6.70;99.90;;;;;;5057781;28;20041;-74
2022/03/27 05:43:36;;;;;;;4.13;2.17;;;6.60;99.90;;;;;;5060327;28;20041;-74
2022/03/27 05:46:02;;;;;;;6.82;2.33;;;6.70;99.90;;;;;;5027573;28;20506;-74
2022/03/27 05:48:28;;;;;;;6.32;2.35;;;6.60;99.90;;;;;;5046494;28;20467;-74
2022/03/27 05:50:53;;;;;;;6.18;2.47;;;6.60;99.90;;;;;;5045047;28;20079;-74
2022/03/27 05:53:19;;;;;;;9.02;2.00;;;6.60;99.90;;;;;;5062403;28;20189;-74
2022/03/27 05:55:47;;;;;;;6.78;1.90;;;6.60;99.90;;;;;;5027035;28;20132;-74
2022/03/27 05:58:13;;;;;;;7.05;2.20;;;6.60;99.90;;;;;;5047289;28;20060;-74
2022/03/27 06:00:40;;;;;;;8.20;2.30;;;6.60;99.90;;;;;;5042636;28;20040;-74
2022/03/27 06:03:05;;;;;;;7.82;2.10;;;6.70;99.90;;;;;;5043956;28;20033;-74
2022/03/27 06:05:31;;;;;;;8.05;2.22;;;6.60;99.90;;;;;;5041872;28;20469;-74
2022/03/27 06:07:58;;;;;;;8.55;2.17;;;6.60;99.90;;;;;;5045488;28;21533;-74
2022/03/27 06:10:31;;;;;;;4.85;1.67;;;6.70;99.90;;;;;;5042294;28;20490;-74
2022/03/27 06:12:58;;;;;;;4.75;2.05;;;6.70;99.90;;;;;;5045138;28;20387;-74
2022/03/27 06:15:24;;;;;;;4.43;2.00;;;6.70;99.90;;;;;;5057324;28;20110;-74
2022/03/27 06:17:51;;;;;;;6.93;2.08;;;6.70;99.90;;;;;;5044454;28;20033;-74
2022/03/27 06:20:22;;;;;;;4.93;2.40;;;6.70;99.90;;;;;;5042514;28;20103;-74
2022/03/27 06:22:48;;;;;;;4.90;2.15;;;6.70;99.90;;;;;;5044340;28;20114;-74
2022/03/27 06:25:16;;;;;;;6.50;2.10;;;6.70;99.90;;;;;;5059100;28;20036;-74
2022/03/27 06:27:43;;;;;;;7.30;1.95;;;6.70;99.90;;;;;;5063594;28;20037;-74
2022/03/27 06:30:12;;;;;;;5.15;1.48;;;6.70;99.90;;;;;;5059723;28;20393;-74
2022/03/27 06:32:39;;;;;;;3.53;1.42;;;6.80;99.90;;;;;;5041832;28;20037;-74
2022/03/27 06:35:05;;;;;;;13.32;2.47;;;6.80;99.90;;;;;;5052572;28;20056;-74
2022/03/27 06:37:32;;;;;;;8.50;2.05;;;6.80;99.90;;;;;;5059427;28;20403;-73
2022/03/27 06:39:57;;;;;;;10.88;2.35;;;6.80;99.90;;;;;;5042936;28;20524;-74
2022/03/27 06:42:25;;;;;;;5.72;2.00;;;6.80;99.90;;;;;;5028498;28;20064;-74
2022/03/27 06:44:52;;;;;;;6.20;1.90;;;6.90;99.90;;;;;;5035823;28;20044;-74
2022/03/27 06:47:22;;;;;;;7.55;2.42;;;6.80;99.90;;;;;;5046916;28;20132;-74
2022/03/27 06:49:48;;;;;;;8.07;2.72;;;6.90;99.90;;;;;;5027793;28;21165;-74
2022/03/27 06:52:15;;;;;;;7.45;1.85;;;6.90;99.90;;;;;;5025639;28;20067;-74
2022/03/27 06:54:42;;;;;;;7.15;1.58;;;6.90;99.90;;;;;;5040100;28;20112;-74
2022/03/27 06:57:08;;;;;;;12.13;2.30;;;6.90;99.90;;;;;;5041560;28;20076;-74
2022/03/27 07:05:03;;;;;;;8.55;2.40;;;6.90;99.90;;;;;;5054882;28;20049;-74
2022/03/27 07:07:30;;;;;;;10.38;2.45;;;6.90;99.90;;;;;;5058388;28;20044;-74
2022/03/27 07:09:55;;;;;;;8.40;1.77;;;6.90;99.90;;;;;;5039633;28;20124;-74
2022/03/27 07:12:21;;;;;;;5.45;2.00;;;6.90;99.90;;;;;;5051249;28;20140;-74
2022/03/27 07:14:47;;;;;;;5.85;1.52;;;7.00;99.90;;;;;;5038407;28;20052;-74
2022/03/27 07:17:17;;;;;;;8.02;2.22;;;7.00;99.90;;;;;;5039939;28;20053;-74
2022/03/27 07:19:46;;;;;;;5.43;2.00;;;7.00;99.90;;;;;;5038414;28;20152;-74
2022/03/27 07:22:12;;;;;;;8.43;2.35;;;7.00;99.90;;;;;;5040826;28;20053;-74
2022/03/27 07:24:38;;;;;;;10.93;3.20;;;7.00;99.90;;;;;;5042065;28;20048;-74
2022/03/27 07:27:04;;;;;;;6.95;2.15;;;7.00;99.90;;;;;;5022995;28;20053;-74
2022/03/27 07:29:34;;;;;;;12.20;2.00;;;7.10;99.90;;;;;;5039469;28;20035;-74
2022/03/27 07:31:59;;;;;;;8.68;2.50;;;7.10;99.90;;;;;;5041851;28;20214;-74
2022/03/27 07:34:25;;;;;;;11.27;2.65;;;7.10;99.90;;;;;;5039738;28;20057;-74
2022/03/27 07:36:51;;;;;;;9.95;3.35;;;7.10;99.90;;;;;;5041179;28;20047;-74
2022/03/27 07:39:17;;;;;;;10.55;2.45;;;7.20;99.90;;;;;;5024856;28;20037;-74
2022/03/27 07:41:42;;;;;;;7.45;2.22;;;7.20;99.90;;;;;;5040507;28;20414;-74
2022/03/27 07:44:08;;;;;;;7.65;2.78;;;7.30;99.90;;;;;;5038628;28;20139;-74
2022/03/27 07:46:34;;;;;;;6.63;2.47;;;7.40;99.90;;;;;;5024555;28;20138;-74
2022/03/27 07:49:00;;;;;;;8.10;2.67;;;7.40;99.90;;;;;;5027929;28;20260;-74
2022/03/27 07:51:25;;;;;;;8.73;2.10;;;7.50;99.90;;;;;;5037541;28;20401;-74
2022/03/27 07:53:52;;;;;;;5.70;2.13;;;7.50;99.90;;;;;;5037280;28;20079;-75
2022/03/27 07:56:19;;;;;;;5.80;2.60;;;7.60;99.90;;;;;;5033782;28;20045;-76
2022/03/27 07:58:45;;;;;;;7.78;1.73;;;7.60;99.90;;;;;;5057430;28;20079;-73
2022/03/27 08:01:14;;;;;;;7.85;2.10;;;7.60;99.90;;;;;;5058234;28;20036;-73
2022/03/27 08:03:41;;;;;;;12.30;1.65;;;7.60;99.90;;;;;;5057836;28;20053;-73
2022/03/27 08:06:07;;;;;;;3.78;1.77;;;7.60;99.90;;;;;;5025499;28;20044;-73
2022/03/27 08:08:33;;;;;;;10.80;2.28;;;7.60;99.90;;;;;;5041590;28;20041;-73
2022/03/27 08:10:58;;;;;;;10.90;2.20;;;7.60;99.90;;;;;;5054460;28;20115;-73
2022/03/27 08:13:24;;;;;;;8.45;2.22;;;7.70;99.90;;;;;;5038484;28;20040;-73
2022/03/27 08:15:50;;;;;;;10.75;2.03;;;7.80;99.90;;;;;;5023456;28;20033;-73
2022/03/27 08:18:16;;;;;;;5.55;1.65;;;7.80;99.90;;;;;;5040995;28;20068;-73
2022/03/27 08:20:41;;;;;;;6.10;1.80;;;7.90;99.90;;;;;;5038966;28;20548;-73
2022/03/27 08:23:07;;;;;;;9.75;2.60;;;7.90;99.90;;;;;;5023714;28;20071;-74
2022/03/27 08:28:22;;;;;;;9.68;2.03;;;7.80;99.90;;;;;;5051419;28;20045;-74
2022/03/27 08:30:48;;;;;;;5.15;1.95;;;7.80;99.90;;;;;;5022867;28;20170;-74
2022/03/27 08:33:15;;;;;;;4.75;2.10;;;7.80;99.90;;;;;;5040577;28;20041;-73
2022/03/27 08:35:42;;;;;;;6.90;1.90;;;7.80;99.90;;;;;;5026210;28;20554;-74
2022/03/27 08:38:15;;;;;;;3.78;2.17;;;7.70;99.90;;;;;;5041880;28;20182;-74
2022/03/27 08:40:42;;;;;;;7.20;2.55;;;7.80;99.90;;;;;;5040376;28;20037;-74
2022/03/27 08:43:13;;;;;;;8.43;2.33;;;7.80;99.90;;;;;;5045736;28;20193;-74
2022/03/27 08:45:40;;;;;;;11.88;3.03;;;7.90;99.90;;;;;;5039583;28;20048;-74
2022/03/27 08:48:07;;;;;;;5.50;2.58;;;8.00;99.90;;;;;;5036150;28;20063;-74
2022/03/27 08:50:37;;;;;;;8.48;2.30;;;7.90;99.90;;;;;;5037782;28;20040;-74
2022/03/27 08:53:08;;;;;;;4.65;2.35;;;8.00;99.90;;;;;;5039701;28;20406;-74
2022/03/27 08:55:46;;;;;;;5.60;1.88;;;8.00;99.90;;;;;;5026587;28;20037;-73
2022/03/27 08:58:12;;;;;;;6.78;1.85;;;8.00;99.90;;;;;;5038718;28;20400;-74
2022/03/27 09:00:39;;;;;;;7.88;1.73;;;8.00;99.90;;;;;;5024741;28;20040;-73
2022/03/27 09:03:06;;;;;;;3.83;1.73;;;8.10;99.90;;;;;;5056295;28;20127;-74
2022/03/27 09:05:36;;;;;;;5.10;1.77;;;8.10;99.90;;;;;;5042038;28;20461;-74
2022/03/27 09:08:05;;;;;;;9.55;1.45;;;8.20;99.90;;;;;;5026284;28;20029;-74
2022/03/27 09:10:31;;;;;;;6.05;1.90;;;8.20;99.90;;;;;;5060409;28;20041;-74
2022/03/27 09:12:57;;;;;;;7.75;1.98;;;8.30;99.90;;;;;;5059757;28;20040;-74
2022/03/27 09:15:23;;;;;;;4.45;1.55;;;8.30;99.90;;;;;;5029377;28;20263;-74
2022/03/27 09:18:11;;;;;;;9.55;1.83;;;8.40;99.90;;;;;;5045745;28;20071;-74
2022/03/27 09:20:48;;;;;;;6.15;1.92;;;8.40;99.90;;;;;;5058082;28;20056;-74
2022/03/27 09:23:15;;;;;;;11.45;2.42;;;8.40;99.90;;;;;;5060203;28;20056;-74
2022/03/27 09:25:53;;;;;;;12.68;2.80;;;8.50;99.90;;;;;;5043340;28;20548;-74
2022/03/27 09:28:23;;;;;;;8.15;2.80;;;8.50;99.90;;;;;;5039818;28;20044;-74
2022/03/27 09:30:49;;;;;;;5.68;2.00;;;8.50;99.90;;;;;;5054856;28;20033;-73
2022/03/27 09:33:38;;;;;;;4.88;2.40;;;8.50;99.90;;;;;;5036268;28;20087;-73
2022/03/27 09:36:08;;;;;;;4.03;2.42;;;8.60;99.90;;;;;;5042638;28;20478;-73
2022/03/27 09:38:35;;;;;;;5.72;2.45;;;8.60;99.90;;;;;;5060401;28;20029;-73
2022/03/27 09:41:01;;;;;;;9.48;2.28;;;8.70;99.90;;;;;;5055169;28;20092;-73
2022/03/27 09:43:27;;;;;;;5.18;2.03;;;8.70;99.90;;;;;;5050137;28;20032;-74
2022/03/27 09:45:59;;;;;;;16.95;2.42;;;8.80;99.90;;;;;;5040093;28;20076;-74
2022/03/27 09:48:24;;;;;;;3.67;1.70;;;8.80;99.90;;;;;;5058367;28;20045;-74
2022/03/27 09:50:55;;;;;;;5.32;1.88;;;8.80;99.90;;;;;;5026859;28;20469;-74
2022/03/27 09:53:31;;;;;;;5.20;1.60;;;8.90;99.90;;;;;;5040615;28;20037;-74
2022/03/27 09:55:57;;;;;;;6.80;1.70;;;8.90;99.90;;;;;;5038710;28;20037;-73
2022/03/27 09:58:40;;;;;;;8.18;1.83;;;9.00;99.90;;;;;;5038915;28;20442;-74
2022/03/27 10:01:11;;;;;;;8.20;1.92;;;9.00;99.90;;;;;;5043158;28;20043;-74
2022/03/27 10:04:01;;;;;;;13.15;2.28;;;9.10;99.90;;;;;;5026512;28;20111;-74
2022/03/27 10:06:38;;;;;;;6.05;1.65;;;9.10;99.90;;;;;;5051750;28;20079;-74
2022/03/27 10:09:06;;;;;;;4.63;1.95;;;9.10;99.90;;;;;;5060743;28;20077;-74
2022/03/27 10:11:32;;;;;;;5.90;1.90;;;9.20;99.90;;;;;;5026294;28;20041;-73
2022/03/27 10:13:58;;;;;;;4.93;1.73;;;9.20;99.90;;;;;;5049319;28;20041;-73
2022/03/27 10:16:28;;;;;;;6.40;1.80;;;9.20;99.90;;;;;;5041212;28;20049;-74
2022/03/27 10:18:55;;;;;;;4.95;1.35;;;9.30;99.90;;;;;;5034649;28;20092;-74
2022/03/27 10:21:24;;;;;;;5.43;1.38;;;9.30;99.90;;;;;;5036519;28;20045;-74
2022/03/27 10:23:55;;;;;;;4.57;1.35;;;9.50;99.90;;;;;;5039135;28;20036;-74
2022/03/27 10:26:21;;;;;;;11.52;1.50;;;9.50;99.90;;;;;;5022222;28;20037;-74
2022/03/27 10:28:50;;;;;;;5.35;1.30;;;9.60;99.90;;;;;;5055443;28;20040;-74
2022/03/27 10:31:18;;;;;;;12.73;1.63;;;9.60;99.90;;;;;;5056243;28;20041;-74
2022/03/27 10:33:45;;;;;;;7.30;1.65;;;9.70;99.90;;;;;;5038878;28;20045;-74
2022/03/27 10:36:19;;;;;;;3.90;1.25;;;9.70;99.90;;;;;;5055060;28;20354;-74
2022/03/27 10:39:07;;;;;;;3.90;1.08;;;9.70;99.90;;;;;;5039731;28;20391;-73
2022/03/27 10:41:39;;;;;;;7.35;1.60;;;9.70;99.90;;;;;;5024050;28;20048;-75
2022/03/27 10:44:12;;;;;;;10.18;1.00;;;9.80;99.90;;;;;;5031950;28;20797;-74
2022/03/27 10:46:38;;;;;;;10.50;1.70;;;9.90;99.90;;;;;;5027811;28;20536;-74
2022/03/27 10:49:15;;;;;;;6.78;1.13;;;9.90;99.90;;;;;;5021114;28;20066;-74
2022/03/27 10:51:43;;;;;;;5.05;1.67;;;10.00;99.90;;;;;;5043871;28;20088;-73
2022/03/27 10:54:18;;;;;;;7.50;1.73;;;10.10;99.90;;;;;;5030444;28;20120;-74
2022/03/27 10:56:49;;;;;;;3.83;1.33;;;10.10;99.00;;;;;;5028749;28;20051;-73
2022/03/27 10:59:17;;;;;;;7.88;1.52;;;10.20;99.90;;;;;;5054290;28;20090;-73
2022/03/27 11:01:50;;;;;;;7.38;1.38;;;10.20;99.90;;;;;;5038284;28;20079;-73
2022/03/27 11:04:21;;;;;;;6.65;1.20;;;10.20;99.90;;;;;;5042967;28;20437;-73
2022/03/27 11:06:49;;;;;;;8.70;1.52;;;10.30;99.90;;;;;;5041313;28;20047;-73
2022/03/27 11:09:34;;;;;;;7.10;1.58;;;10.30;99.90;;;;;;5040763;28;20044;-74
2022/03/27 11:12:02;;;;;;;6.78;2.08;;;10.40;97.30;;;;;;5065021;28;20082;-73
2022/03/27 11:14:52;;;;;;;8.23;1.13;;;10.40;99.00;;;;;;5039554;28;20044;-73
2022/03/27 11:17:35;;;;;;;3.58;0.70;;;10.40;93.90;;;;;;5037952;28;20483;-74
2022/03/27 11:20:05;;;;;;;8.05;1.25;;;10.50;97.00;;;;;;5037514;28;20467;-74
2022/03/27 11:22:53;;;;;;;3.58;1.80;;;10.50;98.60;;;;;;5043313;28;20098;-73
2022/03/27 11:25:37;;;;;;;4.05;1.55;;;10.60;93.80;;;;;;5038547;28;20571;-73
2022/03/27 11:28:08;;;;;;;7.72;1.58;;;10.60;95.90;;;;;;5056119;28;20514;-72
2022/03/27 11:30:59;;;;;;;7.55;1.25;;;10.60;96.70;;;;;;5017702;28;20044;-74
2022/03/27 11:33:29;;;;;;;4.80;1.15;;;10.70;96.40;;;;;;5035389;28;20461;-73
2022/03/27 11:36:09;;;;;;;4.60;0.88;;;10.70;96.80;;;;;;5036139;28;20099;-75
2022/03/27 11:38:51;;;;;;;5.05;0.68;;;10.70;95.20;;;;;;5039683;28;20033;-74
2022/03/27 11:41:38;;;;;;;5.75;0.90;;;10.70;97.20;;;;;;5034350;28;20147;-73
2022/03/27 11:47:09;;;;;;;13.82;1.35;;;10.70;94.10;;;;;;5035985;28;20447;-73
2022/03/27 11:49:39;;;;;;;4.13;0.85;;;10.80;96.60;;;;;;5057887;28;20095;-73
2022/03/27 11:52:11;;;;;;;5.55;0.85;;;10.90;94.90;;;;;;5040922;28;20028;-74
2022/03/27 11:54:37;;;;;;;4.07;1.38;;;11.00;91.60;;;;;;5023654;28;20044;-73
2022/03/27 11:57:04;;;;;;;7.35;1.25;;;11.10;92.20;;;;;;5054141;28;20047;-73
2022/03/27 11:59:31;;;;;;;6.82;1.08;;;11.10;92.10;;;;;;5024701;28;20128;-73
2022/03/27 12:02:02;;;;;;;4.22;0.85;;;11.20;92.70;;;;;;5039337;28;20049;-73
2022/03/27 12:04:28;;;;;;;1.73;0.68;;;11.20;87.50;;;;;;5054588;28;20040;-73
2022/03/27 12:06:56;;;;;;;4.03;1.10;;;11.30;92.20;;;;;;5037967;28;20041;-73
2022/03/27 12:09:31;;;;;;;7.13;1.50;;;11.40;91.40;;;;;;5040914;28;20462;-73
2022/03/27 12:12:23;;;;;;;7.18;1.20;;;11.40;91.60;;;;;;5059661;28;20083;-73
2022/03/27 12:14:54;;;;;;;9.52;1.00;;;11.40;85.80;;;;;;5041480;28;20454;-73
2022/03/27 12:17:24;;;;;;;3.05;0.82;;;11.50;81.00;;;;;;5024404;28;20094;-73
2022/03/27 12:19:57;;;;;;;7.43;1.05;;;11.60;90.10;;;;;;5033948;28;20052;-73
2022/03/27 12:22:49;;;;;;;6.32;1.00;;;11.60;90.00;;;;;;5042892;28;20040;-73
2022/03/27 12:25:15;;;;;;;4.60;1.13;;;11.60;84.10;;;;;;5029786;28;20637;-73
2022/03/27 12:30:36;;;;;;;3.70;1.25;;;11.60;91.20;;;;;;5041380;28;20041;-73
2022/03/27 12:33:03;;;;;;;2.00;0.90;;;11.60;85.40;;;;;;5059074;28;20060;-73
2022/03/27 12:35:30;;;;;;;2.75;0.70;;;11.70;84.50;;;;;;5027583;28;20486;-73
2022/03/27 12:37:56;;;;;;;1.13;0.63;;;11.70;86.70;;;;;;5040197;28;20080;-73
2022/03/27 12:40:22;;;;;;;2.25;0.60;;;11.70;84.60;;;;;;5039736;28;20064;-73
2022/03/27 12:42:50;;;;;;;3.55;1.27;;;11.70;84.20;;;;;;5039183;28;20079;-73
2022/03/27 12:45:32;;;;;;;6.15;0.60;;;11.80;83.30;;;;;;5043959;28;20086;-73
2022/03/27 12:48:14;;;;;;;5.93;1.30;;;11.80;77.00;;;;;;5022462;28;20037;-73
2022/03/27 12:50:42;;;;;;;2.65;0.75;;;11.80;76.80;;;;;;5038623;28;20459;-73
2022/03/27 12:53:20;;;;;;;4.55;0.73;;;11.90;78.00;;;;;;5040903;28;20395;-73
2022/03/27 12:55:50;;;;;;;2.30;0.60;;;11.90;78.80;;;;;;5052530;28;20048;-73
2022/03/27 12:58:32;;;;;;;2.95;0.63;;;11.90;80.40;;;;;;5057908;28;20045;-73
2022/03/27 13:01:11;;;;;;;2.72;0.93;;;12.00;78.50;;;;;;5036479;28;20082;-73
2022/03/27 13:03:57;;;;;;;4.20;1.08;;;12.00;71.90;;;;;;5041427;28;20037;-73
2022/03/27 13:06:38;;;;;;;3.08;0.75;;;12.10;72.10;;;;;;5025663;28;20045;-73
2022/03/27 13:09:05;;;;;;;1.55;0.65;;;12.20;64.20;;;;;;5041217;28;20061;-73
2022/03/27 13:11:37;;;;;;;3.03;0.80;;;12.20;75.30;;;;;;5024140;28;20474;-73
2022/03/27 13:14:03;;;;;;;1.52;0.55;;;12.20;75.60;;;;;;5037864;28;20069;-73
2022/03/27 13:16:34;;;;;;;5.80;0.80;;;12.20;77.50;;;;;;5056519;28;20064;-73
2022/03/27 13:19:14;;;;;;;3.08;0.60;;;12.30;73.00;;;;;;5045477;28;20076;-73